Home > Products > Valid Products > TAF

000
FTUS43 KSGF 251700
TAFJLN
TAF
KJLN 251732Z 2518/2618 32020G31KT P6SM OVC025
     FM252300 33016G25KT P6SM OVC025
     FM260300 33008KT P6SM OVC025
     FM260600 VRB04KT P6SM FEW025
      TEMPO 2610/2614 4SM BR
     FM261400 21009KT P6SM SKC=



000
FTUS43 KSGF 251700
TAFSGF
TAF
KSGF 251732Z 2518/2618 31019G30KT P6SM -RA OVC015
      TEMPO 2518/2521 4SM -RA BR BKN009
     FM260000 34014G23KT P6SM OVC012
     FM260500 33010KT P6SM OVC010
     FM260900 VRB04KT 6SM BR BKN010
     FM261400 23007KT P6SM SCT010=



000
FTUS43 KSGF 251500 AAA
TAFJLN
TAF AMD
KJLN 251534Z 2516/2612 32020G31KT P6SM OVC025
     FM260100 35008KT P6SM OVC025
     FM260800 VRB04KT P6SM SCT250=



000
FTUS43 KSGF 251500 AAA
TAFSGF
TAF AMD
KSGF 251533Z 2516/2612 31018G28KT P6SM -SHRA OVC025
     FM251900 31016G25KT P6SM -RA OVC015
     FM260000 34014G20KT P6SM OVC015
     FM260200 33010KT P6SM OVC025=



000
FTUS43 KSGF 251200 AAA
TAFSGF
TAF AMD
KSGF 251251Z 2513/2612 29010KT P6SM OVC050
     FM251600 31018G28KT P6SM VCSH OVC025
     FM251900 31016G25KT P6SM -RA OVC015
     FM260000 34014G20KT P6SM OVC015
     FM260200 33010KT P6SM OVC025=



000
FTUS43 KSGF 251100
TAFJLN
TAF
KJLN 251120Z 2512/2612 29012KT P6SM OVC050
     FM251600 32020G30KT P6SM OVC025
     FM260100 35008KT P6SM OVC025
     FM260800 VRB04KT P6SM SCT250=



000
FTUS43 KSGF 251100
TAFSGF
TAF
KSGF 251120Z 2512/2612 27010KT P6SM OVC050
     FM251600 31018G28KT P6SM VCSH OVC025
     FM251900 31016G25KT P6SM -RA OVC015
     FM260000 34014G20KT P6SM OVC015
     FM260200 33010KT P6SM OVC025=



000
FTUS43 KSGF 250500
TAFSGF
TAF
KSGF 250538Z 2506/2606 23014KT P6SM OVC090 WS010/25040KT
     FM250800 24011KT P6SM VCSH SCT040 OVC070 WS020/30035KT
     FM251200 27010KT P6SM OVC040
     FM251500 31018G28KT P6SM OVC020 PROB30 2518/2524 -SHRA
     FM260000 34014G20KT P6SM OVC015=



000
FTUS43 KSGF 250500
TAFJLN
TAF
KJLN 250538Z 2506/2606 22015G22KT P6SM OVC090 WS010/30040KT
     FM250700 23011KT P6SM VCSH SCT030 OVC070 WS020/31040KT
     FM251100 27012KT P6SM OVC040
     FM251500 30020G30KT P6SM OVC025 PROB30 2516/2522 -SHRA
     FM260000 33014G20KT P6SM OVC020=



000
FTUS43 KSGF 250400 AAA
TAFSGF
TAF AMD
KSGF 250417Z 2504/2524 23014G21KT P6SM OVC090 WS010/25040KT
     FM250800 24011KT P6SM VCSH SCT030 OVC070 WS020/30035KT
      TEMPO 2509/2513 -SHRA
     FM251300 27010KT P6SM OVC030
     FM251600 30018G28KT P6SM OVC025 PROB30 2518/2524 -SHRA=



000
FTUS43 KSGF 242300 RRA
TAFSGF
TAF
KSGF 242338Z 2500/2524 21008KT P6SM BKN200
     FM250400 22012KT P6SM OVC090 WS010/25040KT
     FM250800 24011KT P6SM VCSH SCT030 OVC070 WS020/30035KT
      TEMPO 2509/2513 -SHRA
     FM251300 27010KT P6SM OVC030
     FM251600 30018G28KT P6SM OVC025 PROB30 2518/2524 -SHRA=



000
FTUS43 KSGF 242300 RRA
TAFJLN
TAF
KJLN 242338Z 2500/2524 23010KT P6SM BKN200
     FM250300 21012KT P6SM OVC100 WS010/26040KT
     FM250700 25011KT P6SM VCSH SCT030 OVC050 WS020/32035KT
      TEMPO 2508/2512 -SHRA
     FM251200 28012KT P6SM OVC030
     FM251500 30020G30KT P6SM OVC025=



000
FTUS43 KSGF 241700
TAFJLN
TAF
KJLN 241720Z 2418/2518 23010KT P6SM SKC
     FM250300 22013KT P6SM BKN100 WS020/28040KT
     FM250700 25011KT P6SM VCSH OVC050
      TEMPO 2508/2512 5SM -SHRA BR BKN035 OVC050
     FM251200 27012KT P6SM BKN030
     FM251600 30019G30KT P6SM BKN030=



000
FTUS43 KSGF 241700
TAFSGF
TAF
KSGF 241720Z 2418/2518 26010KT P6SM SKC
     FM250000 22008KT P6SM SCT250
     FM250400 23012KT P6SM BKN100 WS019/28040KT
     FM250800 26011KT P6SM VCSH OVC050
      TEMPO 2509/2513 5SM -SHRA BR BKN030 OVC050
     FM251300 27012KT P6SM BKN030
     FM251600 30018G28KT P6SM OVC025=



000
FTUS43 KSGF 241100
TAFJLN
TAF
KJLN 241120Z 2412/2512 25005KT P6SM SKC
     FM241600 25012KT P6SM SCT250
     FM250000 22012KT P6SM BKN250
     FM250600 23012G20KT P6SM OVC100 WS020/31035KT=



000
FTUS43 KSGF 241100
TAFSGF
TAF
KSGF 241120Z 2412/2512 26010KT P6SM SKC
     FM241700 26010KT P6SM SCT250
     FM250000 21008KT P6SM BKN250
     FM250400 23012KT P6SM OVC100 WS020/29040KT=



000
FTUS43 KSGF 240500
TAFJLN
TAF
KJLN 240527Z 2406/2506 23006KT P6SM BKN120
     FM241100 26005KT P6SM SCT120
     FM241300 28006KT P6SM SCT006
     FM241600 25010G15KT P6SM SCT250
     FM250000 22012KT P6SM BKN250 WS020/27040KT=



000
FTUS43 KSGF 240500
TAFSGF
TAF
KSGF 240527Z 2406/2506 23006KT P6SM BKN110
     FM241200 26006KT P6SM SCT110
     FM241400 28007KT P6SM SCT006
     FM241700 26010KT P6SM SCT250
     FM250000 21008KT P6SM BKN250 WS020/27040KT=



000
FTUS43 KSGF 232300
TAFJLN
TAF
KJLN 232336Z 2400/2424 29005KT P6SM SKC
     FM240200 21006KT P6SM BKN130
     FM241200 28006KT P6SM SCT006
     FM241600 26008KT P6SM SKC=



000
FTUS43 KSGF 232300
TAFSGF
TAF
KSGF 232336Z 2400/2424 28004KT P6SM SKC
     FM240200 22006KT P6SM BKN120
     FM241200 27005KT P6SM SCT006
     FM241600 27009KT P6SM SKC=



000
FTUS43 KSGF 231700
TAFSGF
TAF
KSGF 231720Z 2318/2418 30005KT P6SM FEW030
     FM240200 23007KT P6SM SCT200
     FM241300 27008KT P6SM SCT004=



000
FTUS43 KSGF 231700
TAFJLN
TAF
KJLN 231720Z 2318/2418 28007KT P6SM SKC
     FM240100 22006KT P6SM FEW200
     FM241300 27006KT P6SM FEW004=



000
FTUS43 KSGF 231300 AAA
TAFSGF
TAF AMD
KSGF 231350Z 2314/2412 VRB03KT 5SM BR SCT250
     FM231500 VRB04KT P6SM SCT250
     FM231800 31006KT P6SM SKC
     FM240100 24005KT P6SM SCT250=



000
FTUS43 KSGF 231300 AAA
TAFJLN
TAF AMD
KJLN 231326Z 2313/2412 VRB03KT 5SM BR SKC
     FM231500 VRB04KT P6SM SKC
     FM231900 29006KT P6SM SKC
     FM240000 23005KT P6SM FEW200
     FM240800 26005KT P6SM SKC=



000
FTUS43 KSGF 231200 CCA
TAFJLN
TAF COR
KJLN 231200Z 2312/2412 VRB03KT 5SM BR SKC
     FM231300 VRB04KT P6SM SKC
     FM231900 29006KT P6SM SKC
     FM240000 23005KT P6SM FEW200
     FM240800 26005KT P6SM SKC=



000
FTUS43 KSGF 231100
TAFJLN
TAF
KJLN 231120Z 2312/2412 VRB03KT P6SM SCT200
     FM231900 29006KT P6SM SKC
     FM240000 23005KT P6SM FEW200
     FM240800 26005KT P6SM SKC=



000
FTUS43 KSGF 231100
TAFSGF
TAF
KSGF 231120Z 2312/2412 VRB03KT P6SM SCT250
     FM231800 31006KT P6SM SKC
     FM240100 24005KT P6SM SCT250=



000
FTUS43 KSGF 230500
TAFJLN
TAF
KJLN 230532Z 2306/2406 VRB03KT P6SM SCT200
     FM231800 28005KT P6SM SCT200
     FM240000 23005KT P6SM FEW200=



000
FTUS43 KSGF 230500
TAFSGF
TAF
KSGF 230532Z 2306/2406 07004KT P6SM BKN250
     FM231100 VRB03KT P6SM BKN200
     FM231800 28005KT P6SM BKN200
     FM232300 22004KT P6SM FEW200=



000
FTUS43 KSGF 222300
TAFSGF
TAF
KSGF 222326Z 2300/2324 05005KT P6SM BKN250
     FM231100 VRB03KT P6SM BKN200
     FM231800 28005KT P6SM BKN200=



000
FTUS43 KSGF 222300
TAFJLN
TAF
KJLN 222326Z 2300/2324 04005KT P6SM SCT250
     FM230900 VRB03KT P6SM BKN200
     FM231800 28005KT P6SM SCT200=



000
FTUS43 KSGF 222300 AAA
TAFSGF
TAF AMD
KSGF 222308Z 2223/2318 VRB04KT P6SM OVC110
     FM230300 VRB04KT P6SM SCT250=



    US Dept of Commerce
    National Oceanic and Atmospheric Administration
    National Weather Service
    1325 East West Highway
    Silver Spring, MD 20910
    Page Author: NWS Internet Services Team
Disclaimer
Information Quality
Credits
Glossary
Privacy Policy
Freedom of Information Act (FOIA)
About Us
Career Opportunities